Weather at Klagenfurt Airport

Public forecast

Using degrees Celsius for public forecast. Weather courtesy of forecast.io.

Current aviation weather report (METAR) for Klagenfurt Airport

2024/05/25 17:50 (retrieved 20 minutes ago)

LOWK 251750Z AUTO 21004KT 9999 FEW090 17/10 Q1017 NOSIG

Aviation forecast (TAF) for Klagenfurt Airport

2024/05/25 18:18 (retrieved 0 seconds ago)

TAF LOWK 251715Z 2518/2618 VRB03KT 9999 FEW050 TX20/2614Z TN11/2603Z PROB30 2602/2605 4000 BR PROB30 TEMPO 2606/2610 -SHRA